Time;durP1;ratioP1;P1;durP2;ratioP2;P2;SDS_P1;SDS_P2;PMS_P1;PMS_P2;Temp;Humidity;BMP_temperature;BMP_pressure;BME280_temperature;BME280_humidity;BME280_pressure;Samples;Min_cycle;Max_cycle;Signal;HPM_P1;HPM_P2
2023/06/25 00:01:02;;;;;;;11.27;8.18;;;;;;;21.97;100.00;101972.38;4977404;28;20078;-73
2023/06/25 00:03:28;;;;;;;9.27;7.78;;;;;;;21.92;100.00;101975.63;4979531;28;20130;-74
2023/06/25 00:05:55;;;;;;;10.82;8.43;;;;;;;21.90;100.00;101975.81;4973389;28;20519;-74
2023/06/25 00:08:21;;;;;;;9.27;7.78;;;;;;;21.88;100.00;101967.19;4973108;28;20697;-73
2023/06/25 00:10:48;;;;;;;11.32;7.90;;;;;;;21.87;100.00;101972.72;4984126;28;20082;-73
2023/06/25 00:13:14;;;;;;;9.32;7.40;;;;;;;21.86;100.00;101971.88;4979899;28;20570;-73
2023/06/25 00:15:41;;;;;;;10.90;7.82;;;;;;;21.77;100.00;101965.03;4988386;28;20050;-73
2023/06/25 00:18:08;;;;;;;9.38;7.75;;;;;;;21.77;100.00;101967.69;4974130;28;20459;-73
2023/06/25 00:20:34;;;;;;;10.23;8.15;;;;;;;21.75;100.00;101959.06;4978527;28;20058;-73
2023/06/25 00:23:01;;;;;;;10.73;7.15;;;;;;;21.76;100.00;101962.53;4981935;28;20534;-73
2023/06/25 00:25:34;;;;;;;12.73;9.77;;;;;;;21.72;100.00;101959.47;4979929;28;20283;-73
2023/06/25 00:28:02;;;;;;;14.13;9.57;;;;;;;21.66;100.00;101958.38;4969651;28;20042;-74
2023/06/25 00:30:29;;;;;;;12.43;8.45;;;;;;;21.66;100.00;101954.84;4959835;28;20054;-74
2023/06/25 00:32:56;;;;;;;11.10;8.48;;;;;;;21.65;100.00;101955.91;4984854;28;20046;-74
2023/06/25 00:35:27;;;;;;;11.35;8.55;;;;;;;21.64;100.00;101949.75;4961187;28;20077;-73
2023/06/25 00:38:00;;;;;;;11.80;9.10;;;;;;;21.65;100.00;101955.91;4963111;28;20047;-74
2023/06/25 00:40:27;;;;;;;12.68;8.82;;;;;;;21.66;100.00;101957.53;4981213;28;20047;-72
2023/06/25 00:42:58;;;;;;;11.77;9.25;;;;;;;21.69;100.00;101960.66;4986326;28;20668;-73
2023/06/25 00:45:26;;;;;;;17.42;10.15;;;;;;;21.74;100.00;101954.75;4978517;28;20050;-73
2023/06/25 00:47:53;;;;;;;;;;;;;;;21.80;100.00;101951.31;4980949;28;20137;-72
2023/06/25 00:50:21;;;;;;;13.17;9.23;;;;;;;21.84;100.00;101949.06;4986045;28;20013;-72
2023/06/25 00:53:01;;;;;;;13.45;9.13;;;;;;;21.86;100.00;101950.53;4980757;28;20054;-72
2023/06/25 00:55:28;;;;;;;11.45;9.15;;;;;;;21.88;100.00;101945.81;4984476;28;20104;-73
2023/06/25 00:57:56;;;;;;;12.02;9.65;;;;;;;21.87;100.00;101944.16;4981338;28;20471;-72
2023/06/25 01:00:24;;;;;;;13.13;9.30;;;;;;;21.91;100.00;101937.44;4972266;28;20050;-72
2023/06/25 01:03:03;;;;;;;13.77;9.75;;;;;;;21.93;100.00;101945.22;4987328;28;20105;-73
2023/06/25 01:05:46;;;;;;;11.82;9.82;;;;;;;21.92;100.00;101944.41;4983454;28;20061;-75
2023/06/25 01:08:16;;;;;;;14.68;9.95;;;;;;;21.92;100.00;101936.38;4968614;28;20404;-75
2023/06/25 01:10:43;;;;;;;13.98;10.52;;;;;;;21.90;100.00;101937.59;4962088;28;20058;-74
2023/06/25 01:13:10;;;;;;;13.95;10.55;;;;;;;21.87;100.00;101925.44;4990968;28;20050;-73
2023/06/25 01:15:36;;;;;;;14.45;10.30;;;;;;;21.87;100.00;101927.31;4976804;28;20101;-74
2023/06/25 01:18:04;;;;;;;13.95;10.75;;;;;;;21.87;100.00;101933.47;4981008;28;20058;-74
2023/06/25 01:20:31;;;;;;;14.55;10.52;;;;;;;21.85;100.00;101916.81;4970529;28;20055;-74
2023/06/25 01:22:58;;;;;;;16.35;10.77;;;;;;;21.87;100.00;101924.63;4983306;28;20062;-73
2023/06/25 01:25:25;;;;;;;14.10;10.18;;;;;;;21.86;100.00;101934.50;4987463;28;20121;-73
2023/06/25 01:27:51;;;;;;;16.10;11.93;;;;;;;21.84;100.00;101925.03;4984220;28;20058;-74
2023/06/25 01:30:20;;;;;;;16.48;11.32;;;;;;;21.84;100.00;101925.03;4982639;28;20046;-73
2023/06/25 01:32:47;;;;;;;14.65;10.43;;;;;;;21.78;100.00;101918.63;4963540;28;20054;-74
2023/06/25 01:35:15;;;;;;;14.77;10.90;;;;;;;21.77;100.00;101919.63;4989565;28;20460;-74
2023/06/25 01:37:42;;;;;;;23.70;16.40;;;;;;;21.73;100.00;101916.50;4973947;28;20266;-74
2023/06/25 01:40:09;;;;;;;16.70;12.52;;;;;;;21.75;100.00;101908.31;4992827;28;20084;-74
2023/06/25 01:42:36;;;;;;;17.25;11.35;;;;;;;21.73;100.00;101911.19;4988151;28;20069;-73
2023/06/25 01:45:03;;;;;;;16.02;10.10;;;;;;;21.72;100.00;101901.53;4982845;28;20054;-74
2023/06/25 01:47:30;;;;;;;16.58;10.73;;;;;;;21.73;100.00;101907.69;4978139;28;20113;-74
2023/06/25 01:49:56;;;;;;;14.18;11.73;;;;;;;21.71;100.00;101893.72;4984474;28;20046;-74
2023/06/25 01:52:23;;;;;;;15.07;11.82;;;;;;;21.69;100.00;101899.22;4972675;28;20046;-74
2023/06/25 01:54:50;;;;;;;12.98;11.13;;;;;;;21.68;100.00;101897.59;4988657;28;20058;-74
2023/06/25 01:57:16;;;;;;;14.98;11.40;;;;;;;21.66;100.00;101890.78;4966654;28;20108;-74
2023/06/25 01:59:43;;;;;;;16.15;10.90;;;;;;;21.62;100.00;101887.69;4985558;28;20149;-73
2023/06/25 02:02:09;;;;;;;15.35;11.45;;;;;;;21.63;100.00;101878.66;4980235;28;20081;-73
2023/06/25 02:04:36;;;;;;;16.38;11.63;;;;;;;21.62;100.00;101879.69;4988399;28;20061;-74
2023/06/25 02:07:02;;;;;;;18.00;11.70;;;;;;;21.60;100.00;101873.72;4983586;28;20471;-73
2023/06/25 02:09:29;;;;;;;14.90;11.45;;;;;;;21.57;100.00;101867.94;4986543;28;20050;-74
2023/06/25 02:11:55;;;;;;;13.88;11.80;;;;;;;21.52;100.00;101874.69;4972085;28;20054;-73
2023/06/25 02:14:22;;;;;;;14.43;11.13;;;;;;;21.47;100.00;101874.44;4960636;28;20050;-73
2023/06/25 02:16:48;;;;;;;17.25;11.90;;;;;;;21.46;100.00;101875.47;4968323;28;20058;-73
2023/06/25 02:19:15;;;;;;;16.65;12.35;;;;;;;21.42;100.00;101871.47;4986297;28;20137;-73
2023/06/25 02:21:42;;;;;;;16.90;11.95;;;;;;;21.38;100.00;101875.53;4977174;28;20054;-74
2023/06/25 02:24:08;;;;;;;16.30;11.90;;;;;;;21.35;100.00;101867.94;4988566;28;20514;-75
2023/06/25 02:26:35;;;;;;;16.08;12.05;;;;;;;21.35;100.00;101865.28;4978534;28;20686;-73
2023/06/25 02:29:02;;;;;;;15.25;11.85;;;;;;;21.36;100.00;101874.09;4984576;28;20117;-73
2023/06/25 02:31:29;;;;;;;18.90;12.23;;;;;;;21.32;100.00;101866.47;4966609;28;20082;-73
2023/06/25 02:33:56;;;;;;;14.02;11.10;;;;;;;21.31;100.00;101864.81;4971013;28;20062;-75
2023/06/25 02:36:22;;;;;;;16.63;12.35;;;;;;;21.31;100.00;101862.16;4984094;28;20109;-75
2023/06/25 02:38:49;;;;;;;15.93;12.18;;;;;;;21.29;100.00;101853.53;4989481;28;20077;-75
2023/06/25 02:41:15;;;;;;;15.70;11.90;;;;;;;21.30;100.00;101851.66;4966168;28;20042;-75
2023/06/25 02:43:42;;;;;;;17.00;12.65;;;;;;;21.28;100.00;101848.38;4978645;28;20077;-73
2023/06/25 02:46:08;;;;;;;17.42;12.15;;;;;;;21.22;100.00;101839.28;4968483;28;20050;-73
2023/06/25 02:48:36;;;;;;;17.15;12.52;;;;;;;21.23;100.00;101845.44;4980941;28;20133;-72
2023/06/25 02:51:03;;;;;;;17.25;12.40;;;;;;;21.21;100.00;101837.66;4970157;28;20454;-72
2023/06/25 02:53:30;;;;;;;17.23;12.82;;;;;;;21.21;100.00;101842.13;4966294;28;20054;-73
2023/06/25 02:55:56;;;;;;;15.23;12.07;;;;;;;21.19;100.00;101834.34;4982910;28;20074;-74
2023/06/25 02:58:23;;;;;;;17.25;12.95;;;;;;;21.18;100.00;101839.88;4980811;28;20054;-74
2023/06/25 03:00:49;;;;;;;17.73;12.07;;;;;;;21.11;100.00;101842.47;4980377;28;20510;-73
2023/06/25 03:03:16;;;;;;;15.85;12.23;;;;;;;21.12;100.00;101841.47;4981673;28;20047;-74
2023/06/25 03:05:43;;;;;;;17.85;12.57;;;;;;;21.10;100.00;101836.31;4966274;28;20109;-73
2023/06/25 03:08:10;;;;;;;21.08;13.10;;;;;;;21.05;100.00;101838.75;4982561;28;20046;-74
2023/06/25 03:10:37;;;;;;;16.70;12.48;;;;;;;21.05;100.00;101843.22;4966488;28;20054;-73
2023/06/25 03:13:05;;;;;;;15.73;12.73;;;;;;;21.04;100.00;101845.09;4984547;28;20050;-73
2023/06/25 03:15:31;;;;;;;17.25;13.15;;;;;;;21.02;100.00;101840.97;4990582;28;20069;-74
2023/06/25 03:17:58;;;;;;;16.40;12.13;;;;;;;21.02;100.00;101840.97;4984532;28;20109;-73
2023/06/25 03:20:24;;;;;;;15.25;12.05;;;;;;;20.96;100.00;101847.06;4980448;28;20051;-73
2023/06/25 03:22:51;;;;;;;17.67;13.07;;;;;;;20.93;100.00;101833.09;4974599;28;20109;-73
2023/06/25 03:25:18;;;;;;;17.58;13.40;;;;;;;20.90;100.00;101825.47;4974592;28;20082;-73
2023/06/25 03:27:44;;;;;;;14.00;12.35;;;;;;;20.91;100.00;101824.47;4977141;28;20133;-73
2023/06/25 03:30:11;;;;;;;18.83;13.73;;;;;;;20.88;100.00;101832.84;4987241;28;20109;-73
2023/06/25 03:32:37;;;;;;;14.73;12.65;;;;;;;20.87;100.00;101828.50;4972908;28;20081;-73
2023/06/25 03:35:04;;;;;;;19.98;13.30;;;;;;;20.89;100.00;101830.97;4980908;28;20108;-74
2023/06/25 03:37:31;;;;;;;18.63;14.52;;;;;;;20.86;100.00;101834.03;4982806;28;20083;-74
2023/06/25 03:39:57;;;;;;;17.58;14.25;;;;;;;20.84;100.00;101828.91;4978588;28;20058;-73
2023/06/25 03:42:24;;;;;;;20.75;12.95;;;;;;;20.83;100.00;101829.09;4990138;28;20096;-73
2023/06/25 03:44:55;;;;;;;17.60;13.68;;;;;;;20.80;100.00;101824.16;4979664;28;20137;-73
2023/06/25 03:47:22;;;;;;;18.38;13.70;;;;;;;20.78;100.00;101823.47;4968422;28;20059;-74
2023/06/25 03:49:48;;;;;;;16.63;11.63;;;;;;;20.82;100.00;101830.13;4975514;28;20474;-73
2023/06/25 03:52:15;;;;;;;15.95;13.18;;;;;;;20.82;100.00;101827.44;4976059;28;20500;-73
2023/06/25 03:54:41;;;;;;;21.27;14.00;;;;;;;20.81;100.00;101828.44;4987435;28;20073;-73
2023/06/25 03:57:08;;;;;;;16.50;12.75;;;;;;;20.77;100.00;101822.66;4965820;28;20046;-73
2023/06/25 03:59:34;;;;;;;18.90;12.88;;;;;;;20.78;100.00;101826.16;4989766;28;20593;-73
2023/06/25 04:02:01;;;;;;;17.50;14.13;;;;;;;20.73;100.00;101827.53;4962863;28;20299;-74
2023/06/25 04:04:27;;;;;;;21.25;14.13;;;;;;;20.73;100.00;101822.22;4985213;28;20050;-73
2023/06/25 04:06:54;;;;;;;18.75;13.98;;;;;;;20.71;100.00;101816.25;4967769;28;20050;-73
2023/06/25 04:09:21;;;;;;;16.10;12.77;;;;;;;20.73;100.00;101824.06;4975352;28;20054;-73
2023/06/25 04:11:47;;;;;;;16.95;12.82;;;;;;;20.70;100.00;101827.94;4986940;28;20051;-73
2023/06/25 04:14:14;;;;;;;17.58;13.70;;;;;;;20.70;100.00;101830.59;4962439;28;20499;-73
2023/06/25 04:16:40;;;;;;;19.33;13.02;;;;;;;20.71;100.00;101826.91;4971488;28;20046;-73
2023/06/25 04:19:09;;;;;;;18.15;13.52;;;;;;;20.69;100.00;101818.28;4971877;28;20074;-74
2023/06/25 04:21:37;;;;;;;22.52;14.30;;;;;;;20.67;100.00;101822.97;4983023;28;20495;-73
2023/06/25 04:24:04;;;;;;;15.30;12.90;;;;;;;20.65;100.00;101816.19;4982795;28;20105;-73
2023/06/25 04:26:31;;;;;;;22.27;13.90;;;;;;;20.68;100.00;101819.31;4983721;28;20098;-73
2023/06/25 04:28:57;;;;;;;19.40;13.98;;;;;;;20.69;100.00;101810.28;4971948;28;20058;-73
2023/06/25 04:31:24;;;;;;;19.25;14.13;;;;;;;20.69;100.00;101810.28;4983088;28;20464;-73
2023/06/25 04:33:51;;;;;;;19.70;14.00;;;;;;;20.70;100.00;101805.78;4980931;28;20064;-73
2023/06/25 04:36:19;;;;;;;17.73;14.48;;;;;;;20.69;100.00;101806.78;4982971;28;20050;-73
2023/06/25 04:38:46;;;;;;;16.95;14.38;;;;;;;20.70;100.00;101809.28;4988009;28;20600;-73
2023/06/25 04:41:12;;;;;;;22.67;14.25;;;;;;;20.67;100.00;101806.16;4983348;28;20716;-73
2023/06/25 04:43:39;;;;;;;16.90;14.25;;;;;;;20.67;100.00;101812.31;4982132;28;20050;-73
2023/06/25 04:46:05;;;;;;;20.85;14.65;;;;;;;20.67;100.00;101811.50;4979709;28;20066;-73
2023/06/25 04:48:32;;;;;;;17.15;14.10;;;;;;;20.71;100.00;101808.25;4978091;28;20054;-73
2023/06/25 04:50:58;;;;;;;17.48;13.88;;;;;;;20.70;100.00;101811.94;4984261;28;20092;-73
2023/06/25 04:53:26;;;;;;;17.50;13.63;;;;;;;20.73;100.00;101813.41;4965272;28;20479;-72
2023/06/25 04:55:53;;;;;;;16.92;13.68;;;;;;;20.74;100.00;101809.72;4977793;28;20054;-73
2023/06/25 04:58:19;;;;;;;20.02;14.63;;;;;;;20.77;100.00;101816.50;4983532;28;20057;-73
2023/06/25 05:00:46;;;;;;;17.63;14.45;;;;;;;20.77;100.00;101814.66;4977057;28;20078;-73
2023/06/25 05:03:12;;;;;;;19.45;14.27;;;;;;;20.83;100.00;101819.22;4983815;28;20050;-73
2023/06/25 05:05:39;;;;;;;17.35;13.98;;;;;;;20.86;100.00;101812.72;4983236;28;20117;-73
2023/06/25 05:08:06;;;;;;;19.38;15.13;;;;;;;20.86;100.00;101808.19;4984225;28;20058;-73
2023/06/25 05:10:32;;;;;;;17.35;14.52;;;;;;;20.90;100.00;101809.47;4979775;28;20109;-73
2023/06/25 05:13:00;;;;;;;18.48;14.93;;;;;;;20.92;100.00;101814.63;4985340;28;20495;-73
2023/06/25 05:15:26;;;;;;;18.08;14.55;;;;;;;20.93;100.00;101810.91;4977092;28;20061;-73
2023/06/25 05:17:53;;;;;;;20.30;14.30;;;;;;;20.95;100.00;101814.22;4957900;28;20050;-73
2023/06/25 05:20:19;;;;;;;18.60;14.23;;;;;;;20.98;100.00;101807.69;4971357;28;20506;-73
2023/06/25 05:22:46;;;;;;;15.48;12.80;;;;;;;20.99;100.00;101812.00;4982214;28;20089;-73
2023/06/25 05:25:12;;;;;;;15.52;12.30;;;;;;;21.04;100.00;101815.75;4986840;28;20090;-74
2023/06/25 05:27:39;;;;;;;17.80;14.23;;;;;;;21.07;100.00;101817.19;4991315;28;21003;-73
2023/06/25 05:30:07;;;;;;;18.75;14.73;;;;;;;21.11;100.00;101821.13;4981150;28;20054;-73
2023/06/25 05:32:33;;;;;;;18.30;14.40;;;;;;;21.13;100.00;101808.44;4974790;28;20359;-73
2023/06/25 05:35:00;;;;;;;17.85;14.00;;;;;;;21.16;100.00;101813.38;4976333;28;20105;-73
2023/06/25 05:37:26;;;;;;;16.83;13.93;;;;;;;21.22;100.00;101809.94;4974741;28;20594;-74
2023/06/25 05:39:53;;;;;;;16.45;13.68;;;;;;;21.23;100.00;101816.09;4968755;28;20054;-74
2023/06/25 05:42:19;;;;;;;15.23;13.27;;;;;;;21.26;100.00;101813.88;4965384;28;20047;-73
2023/06/25 05:44:46;;;;;;;16.13;12.38;;;;;;;21.27;100.00;101815.53;4948918;28;20058;-74
2023/06/25 05:47:12;;;;;;;17.70;13.70;;;;;;;21.30;100.00;101814.31;4973601;28;20063;-73
2023/06/25 05:49:39;;;;;;;15.85;12.93;;;;;;;21.34;100.00;101812.91;4992099;28;20511;-73
2023/06/25 05:52:05;;;;;;;14.65;12.35;;;;;;;21.40;100.00;101803.31;4984125;28;20057;-73
2023/06/25 05:54:32;;;;;;;17.75;12.48;;;;;;;21.44;100.00;101812.59;4991749;28;20078;-73
2023/06/25 05:56:59;;;;;;;14.70;11.77;;;;;;;21.44;100.00;101800.06;4959048;28;20114;-73
2023/06/25 05:59:25;;;;;;;14.65;12.18;;;;;;;21.49;100.00;101805.66;4986092;28;20042;-73
2023/06/25 06:01:52;;;;;;;15.55;12.73;;;;;;;21.54;100.00;101797.06;4983314;28;20505;-73
2023/06/25 06:04:19;;;;;;;16.05;13.25;;;;;;;21.56;100.00;101804.88;4986979;28;20050;-73
2023/06/25 06:06:46;;;;;;;16.67;12.00;;;;;;;21.57;100.00;101796.69;4972068;28;20059;-74
2023/06/25 06:09:13;;;;;;;14.90;11.68;;;;;;;21.64;100.00;101797.56;4987285;28;20096;-75
2023/06/25 06:11:40;;;;;;;15.68;12.65;;;;;;;21.71;100.00;101801.06;4987869;28;20050;-74
2023/06/25 06:14:07;;;;;;;14.35;11.32;;;;;;;21.75;100.00;101790.00;4994510;28;20058;-73
2023/06/25 06:16:34;;;;;;;16.52;11.93;;;;;;;21.82;100.00;101799.72;5007297;28;20041;-74
2023/06/25 06:19:01;;;;;;;13.83;11.17;;;;;;;21.91;100.00;101795.00;4998340;28;20069;-73
2023/06/25 06:21:28;;;;;;;16.52;12.52;;;;;;;21.91;100.00;101795.84;4996320;28;20057;-74
2023/06/25 06:23:54;;;;;;;16.02;11.70;;;;;;;21.97;98.67;101796.06;4991277;28;20175;-74
2023/06/25 06:26:21;;;;;;;15.38;11.65;;;;;;;21.99;98.19;101800.19;4992164;28;20046;-72
2023/06/25 06:28:47;;;;;;;15.63;12.32;;;;;;;22.06;96.09;101795.69;4992808;28;20061;-75
2023/06/25 06:31:14;;;;;;;15.88;11.95;;;;;;;22.14;96.71;101796.56;4980836;28;20046;-75
2023/06/25 06:33:41;;;;;;;15.40;12.68;;;;;;;22.17;97.47;101796.16;4976972;28;20089;-76
2023/06/25 06:36:08;;;;;;;13.93;10.87;;;;;;;22.19;95.55;101794.09;4969300;28;20057;-75
2023/06/25 06:38:36;;;;;;;17.65;13.02;;;;;;;22.21;97.90;101792.91;4982856;28;20057;-73
2023/06/25 06:41:03;;;;;;;18.10;14.27;;;;;;;22.27;99.12;101794.78;4969867;28;20470;-75
2023/06/25 06:43:31;;;;;;;;;;;;;;;22.29;99.78;101795.41;4975196;28;20101;-74
2023/06/25 06:45:58;;;;;;;17.65;12.48;;;;;;;22.33;98.46;101787.81;4973956;28;19921;-74
2023/06/25 06:48:24;;;;;;;15.25;11.98;;;;;;;22.43;95.36;101790.94;4967129;28;20050;-76
2023/06/25 06:50:51;;;;;;;14.88;10.65;;;;;;;22.48;94.30;101783.16;4973032;28;20070;-75
2023/06/25 06:53:17;;;;;;;16.63;10.93;;;;;;;22.52;94.64;101780.88;4959630;28;20141;-75
2023/06/25 06:55:46;;;;;;;11.90;9.63;;;;;;;22.65;93.31;101783.56;4989460;28;20697;-76
2023/06/25 06:58:13;;;;;;;15.05;12.35;;;;;;;22.64;91.94;101781.94;4971423;28;20089;-74
2023/06/25 07:00:39;;;;;;;14.27;10.80;;;;;;;22.68;91.10;101782.34;4979284;28;20053;-74
2023/06/25 07:03:06;;;;;;;16.77;11.80;;;;;;;22.71;89.23;101785.44;4973749;28;20116;-75
2023/06/25 07:05:32;;;;;;;17.23;11.93;;;;;;;22.75;90.48;101785.03;4963201;28;20054;-74
2023/06/25 07:07:59;;;;;;;15.52;11.05;;;;;;;22.79;91.00;101786.25;4974950;28;20085;-75
2023/06/25 07:10:26;;;;;;;17.40;10.88;;;;;;;22.82;91.25;101784.00;4975132;28;20078;-75
2023/06/25 07:12:52;;;;;;;16.77;12.88;;;;;;;22.85;91.24;101786.25;4983493;28;20137;-74
2023/06/25 07:15:19;;;;;;;12.65;10.68;;;;;;;22.89;91.96;101779.50;4980291;28;20105;-74
2023/06/25 07:17:45;;;;;;;14.75;10.57;;;;;;;22.95;93.29;101779.69;4975966;28;20054;-75
2023/06/25 07:20:12;;;;;;;13.13;9.18;;;;;;;23.05;90.01;101782.81;4982583;28;20109;-74
2023/06/25 07:22:43;;;;;;;12.73;10.50;;;;;;;23.07;89.04;101778.06;4977032;28;20092;-77
2023/06/25 07:25:11;;;;;;;16.65;9.95;;;;;;;23.09;90.65;101784.88;4968900;28;20089;-74
2023/06/25 07:27:38;;;;;;;19.80;12.65;;;;;;;23.17;92.49;101781.16;4959636;28;20054;-76
2023/06/25 07:30:06;;;;;;;13.85;10.00;;;;;;;23.20;91.04;101772.72;4972562;28;20057;-77
2023/06/25 07:32:33;;;;;;;19.33;13.35;;;;;;;23.25;93.12;101777.47;4967788;28;20804;-74
2023/06/25 07:35:00;;;;;;;13.40;10.75;;;;;;;23.28;92.49;101785.88;4976419;28;20129;-75
2023/06/25 07:37:26;;;;;;;12.32;8.10;;;;;;;23.35;90.18;101775.19;4984563;28;20077;-76
2023/06/25 07:39:53;;;;;;;12.77;9.88;;;;;;;23.43;91.32;101774.94;4982223;28;20054;-74
2023/06/25 07:42:20;;;;;;;15.63;11.50;;;;;;;23.48;90.17;101779.66;4987147;28;20141;-74
2023/06/25 07:44:46;;;;;;;15.95;12.75;;;;;;;23.56;88.61;101773.28;4979999;28;20097;-74
2023/06/25 07:47:22;;;;;;;22.83;13.10;;;;;;;23.60;90.40;101769.13;4985101;28;20518;-75
2023/06/25 07:49:49;;;;;;;14.07;10.00;;;;;;;23.65;89.52;101774.69;4982711;28;20117;-74
2023/06/25 07:52:16;;;;;;;16.85;12.48;;;;;;;23.68;91.17;101769.75;4981745;28;20184;-76
2023/06/25 07:54:42;;;;;;;9.05;6.57;;;;;;;23.82;88.09;101769.75;4989202;28;20112;-75
2023/06/25 07:57:09;;;;;;;15.55;9.88;;;;;;;23.91;86.74;101765.78;4981163;28;20065;-75
2023/06/25 07:59:35;;;;;;;16.13;10.48;;;;;;;23.98;89.72;101761.22;4972574;28;20078;-75
2023/06/25 08:02:08;;;;;;;16.60;12.85;;;;;;;24.03;89.16;101760.56;4980475;28;20046;-75
2023/06/25 08:04:35;;;;;;;10.52;8.68;;;;;;;24.20;87.32;101758.22;4972126;28;20046;-74
2023/06/25 08:07:02;;;;;;;9.90;8.73;;;;;;;24.28;86.69;101757.97;4980579;28;20050;-75
2023/06/25 08:09:29;;;;;;;10.32;7.57;;;;;;;24.35;86.79;101760.63;4955694;28;20054;-74
2023/06/25 08:11:56;;;;;;;15.70;12.05;;;;;;;24.42;86.88;101756.88;4979934;28;20039;-75
2023/06/25 08:14:22;;;;;;;13.48;10.20;;;;;;;24.44;87.55;101752.13;4955253;28;20046;-75
2023/06/25 08:16:49;;;;;;;10.15;7.13;;;;;;;24.57;86.31;101750.41;4986558;28;20058;-75
2023/06/25 08:19:16;;;;;;;14.75;11.43;;;;;;;24.66;82.59;101747.25;4968691;28;20050;-75
2023/06/25 08:21:42;;;;;;;13.52;10.55;;;;;;;24.72;83.23;101750.91;4975758;28;20339;-76
2023/06/25 08:24:09;;;;;;;14.60;11.07;;;;;;;24.83;82.72;101747.50;4978148;28;20451;-76
2023/06/25 08:26:35;;;;;;;13.27;10.77;;;;;;;24.96;82.39;101754.63;4971343;28;20050;-75
2023/06/25 08:29:02;;;;;;;9.75;7.72;;;;;;;25.12;80.49;101747.88;4989578;28;20065;-75
2023/06/25 08:31:29;;;;;;;10.48;6.60;;;;;;;25.38;78.90;101751.38;4984626;28;20046;-75
2023/06/25 08:33:55;;;;;;;9.57;7.35;;;;;;;25.53;73.97;101741.09;4986163;28;20073;-76
2023/06/25 08:36:22;;;;;;;13.65;9.70;;;;;;;25.77;72.64;101733.16;4984062;28;20484;-75
2023/06/25 08:38:48;;;;;;;11.90;8.13;;;;;;;26.09;66.42;101736.50;4987919;28;20051;-74
2023/06/25 08:41:15;;;;;;;12.30;7.95;;;;;;;26.48;64.94;101734.25;4996419;28;20042;-75
2023/06/25 08:43:42;;;;;;;12.95;8.30;;;;;;;26.80;63.98;101734.81;4984347;28;20220;-74
2023/06/25 08:46:08;;;;;;;12.70;7.95;;;;;;;27.16;65.51;101732.13;4972940;28;20085;-75
2023/06/25 08:48:38;;;;;;;10.82;8.48;;;;;;;27.55;65.22;101733.25;4975446;28;20047;-74
2023/06/25 08:51:15;;;;;;;12.15;9.45;;;;;;;27.67;57.15;101727.03;4991457;28;20058;-75
2023/06/25 08:53:44;;;;;;;;;;;;;;;27.83;57.92;101734.34;4965661;28;20546;-74
2023/06/25 08:56:11;;;;;;;;;;;;;;;28.19;59.15;101730.50;4975937;28;20041;-75
2023/06/25 08:58:37;;;;;;;;;;;;;;;28.63;60.47;101727.19;4994615;28;20211;-76
2023/06/25 09:01:04;;;;;;;;;;;;;;;28.96;56.92;101720.94;4970129;28;19976;-74
2023/06/25 09:03:31;;;;;;;;;;;;;;;29.30;55.46;101722.78;4985930;28;19930;-75
2023/06/25 09:05:58;;;;;;;;;;;;;;;29.66;56.53;101717.81;4981606;28;19993;-73
2023/06/25 09:08:25;;;;;;;;;;;;;;;29.89;54.42;101714.88;4974305;28;20377;-73
2023/06/25 09:10:53;;;;;;;;;;;;;;;30.16;56.85;101719.44;4983575;28;20392;-73
2023/06/25 09:13:20;;;;;;;;;;;;;;;30.39;54.17;101720.22;4982961;28;20730;-72
2023/06/25 09:15:46;;;;;;;;;;;;;;;30.65;54.31;101713.91;4985445;28;20611;-73
2023/06/25 09:18:13;;;;;;;;;;;;;;;30.85;53.06;101717.84;4978079;28;19969;-73
2023/06/25 09:20:46;;;;;;;;;;;;;;;31.10;52.21;101712.59;4989382;28;19988;-73
2023/06/25 09:23:20;;;;;;;;;;;;;;;31.25;50.41;101713.78;4981778;28;20361;-73
2023/06/25 09:25:46;;;;;;;;;;;;;;;31.52;51.85;101706.31;4987741;28;20350;-73
2023/06/25 09:28:13;;;;;;;;;;;;;;;31.66;51.04;101705.81;4978087;28;20375;-74
2023/06/25 09:30:40;;;;;;;;;;;;;;;31.84;50.66;101705.31;4981826;28;20815;-73
2023/06/25 09:33:08;;;;;;;;;;;;;;;32.04;50.54;101701.84;4995231;28;19926;-74
2023/06/25 09:35:36;;;;;;;;;;;;;;;32.04;48.63;101699.13;4972896;28;19925;-74
2023/06/25 09:38:13;;;;;;;;;;;;;;;32.15;48.57;101699.97;4986282;28;20405;-73
2023/06/25 09:40:45;;;;;;;;;;;;;;;32.37;49.50;101702.41;4995891;28;19981;-74
2023/06/25 09:43:12;;;;;;;;;;;;;;;32.43;47.28;101695.88;4979469;28;19949;-75
2023/06/25 09:45:43;;;;;;;;;;;;;;;32.21;44.90;101687.22;4979569;28;20013;-73
2023/06/25 09:48:12;;;;;;;;;;;;;;;32.26;44.55;101690.72;4999723;28;19926;-75
2023/06/25 09:50:40;;;;;;;;;;;;;;;32.28;45.03;101690.44;4978763;28;19933;-73
2023/06/25 09:53:17;;;;;;;;;;;;;;;32.54;47.19;101685.81;4985659;28;19953;-76
2023/06/25 09:55:45;;;;;;;;;;;;;;;32.80;48.23;101681.19;4998686;28;19934;-75
2023/06/25 09:58:12;;;;;;;;;;;;;;;33.06;47.88;101681.09;4971997;28;19922;-74
2023/06/25 10:00:38;;;;;;;;;;;;;;;32.85;45.75;101678.47;4989329;28;19936;-74
2023/06/25 10:03:05;;;;;;;;;;;;;;;33.14;45.77;101679.75;4995174;28;20004;-74
2023/06/25 10:05:33;;;;;;;;;;;;;;;33.30;45.52;101670.41;4990067;28;19905;-73
2023/06/25 10:08:01;;;;;;;;;;;;;;;33.24;42.25;101675.06;4961354;28;19925;-73
2023/06/25 10:10:32;;;;;;;;;;;;;;;33.16;40.99;101672.13;5002510;28;19929;-74
2023/06/25 10:13:08;;;;;;;;;;;;;;;33.07;41.55;101677.31;4981557;28;19940;-75
2023/06/25 10:15:35;;;;;;;;;;;;;;;32.67;41.84;101673.59;4977241;28;19922;-75
2023/06/25 10:18:04;;;;;;;;;;;;;;;32.65;42.84;101662.19;5003208;28;19973;-74
2023/06/25 10:20:32;;;;;;;;;;;;;;;32.89;43.64;101668.66;4975479;28;19948;-74
2023/06/25 10:23:12;;;;;;;;;;;;;;;32.76;41.53;101663.00;4995168;28;19922;-75
2023/06/25 10:25:40;;;;;;;;;;;;;;;32.86;42.44;101661.06;4964589;28;20001;-75
2023/06/25 10:28:11;;;;;;;;;;;;;;;33.12;43.15;101652.03;4973372;28;20015;-74
2023/06/25 10:30:49;;;;;;;;;;;;;;;33.37;42.56;101651.09;4984304;28;20409;-74
2023/06/25 10:33:17;;;;;;;;;;;;;;;33.45;42.85;101651.31;4988347;28;20377;-72
2023/06/25 10:35:46;;;;;;;;;;;;;;;33.41;42.38;101646.72;4993426;28;19930;-72
2023/06/25 10:38:16;;;;;;;;;;;;;;;33.34;42.11;101638.84;4984620;28;20010;-75
2023/06/25 10:40:42;;;;;;;;;;;;;;;33.40;41.53;101637.75;4985970;28;19926;-74
2023/06/25 10:43:09;;;;;;;;;;;;;;;33.45;42.51;101634.97;4989198;28;20032;-74
2023/06/25 10:45:36;;;;;;;;;;;;;;;33.75;43.90;101635.09;4999412;28;19930;-75
2023/06/25 10:48:05;;;;;;;;;;;;;;;33.58;41.43;101630.84;4994081;28;19963;-75
2023/06/25 10:50:35;;;;;;;;;;;;;;;33.87;42.68;101633.66;4983649;28;19926;-74
2023/06/25 10:53:12;;;;;;;;;;;;;;;34.23;43.15;101632.56;4999544;28;19925;-74
2023/06/25 10:55:43;;;;;;;;;;;;;;;34.25;40.77;101630.34;4957098;28;20134;-74
2023/06/25 10:58:20;;;;;;;;;;;;;;;34.36;40.84;101631.06;4993609;28;19921;-75
2023/06/25 11:00:54;;;;;;;;;;;;;;;34.21;39.94;101629.31;4973995;28;19952;-74
2023/06/25 11:03:34;;;;;;;;;;;;;;;34.47;39.99;101621.69;4978382;28;19941;-73
2023/06/25 11:06:01;;;;;;;;;;;;;;;34.55;40.05;101622.97;4988988;28;19933;-75
2023/06/25 11:08:27;;;;;;;;;;;;;;;34.78;39.83;101618.66;4973074;28;19969;-73
2023/06/25 11:10:54;;;;;;;;;;;;;;;34.49;38.19;101613.22;4983532;28;19932;-72
2023/06/25 11:13:22;;;;;;;;;;;;;;;34.73;39.22;101616.78;4972616;28;20005;-75
2023/06/25 11:15:50;;;;;;;;;;;;;;;34.53;38.29;101614.28;4978632;28;20012;-73
2023/06/25 11:18:20;;;;;;;;;;;;;;;34.72;38.92;101614.38;4970917;28;19926;-75
2023/06/25 11:20:47;;;;;;;;;;;;;;;34.66;39.35;101603.53;4993772;28;19925;-74
2023/06/25 11:23:15;;;;;;;;;;;;;;;35.03;39.75;101612.06;4966696;28;19922;-75
2023/06/25 11:25:45;;;;;;;;;;;;;;;34.66;39.10;101600.78;4969031;28;20302;-75